sensor_id;sensor_type;location;lat;lon;timestamp;pressure;altitude;pressure_sealevel;temperature;humidity
37206;BME280;23099;42.636;23.198;2023-04-28T00:01:58;92204.06;;;3.64;70.36
37206;BME280;23099;42.636;23.198;2023-04-28T00:04:24;92191.66;;;3.55;70.56
37206;BME280;23099;42.636;23.198;2023-04-28T00:06:51;92191.19;;;3.53;68.99
37206;BME280;23099;42.636;23.198;2023-04-28T00:09:17;92190.25;;;3.41;71.17
37206;BME280;23099;42.636;23.198;2023-04-28T00:11:45;92188.22;;;3.46;70.29
37206;BME280;23099;42.636;23.198;2023-04-28T00:14:12;92186.69;;;3.28;71.30
37206;BME280;23099;42.636;23.198;2023-04-28T00:16:38;92187.59;;;3.32;71.65
37206;BME280;23099;42.636;23.198;2023-04-28T00:19:05;92189.94;;;3.34;72.06
37206;BME280;23099;42.636;23.198;2023-04-28T00:21:31;92184.50;;;3.30;71.91
37206;BME280;23099;42.636;23.198;2023-04-28T00:23:58;92190.25;;;3.41;71.94
37206;BME280;23099;42.636;23.198;2023-04-28T00:26:24;92188.38;;;3.41;72.56
37206;BME280;23099;42.636;23.198;2023-04-28T00:28:52;92191.50;;;3.26;70.89
37206;BME280;23099;42.636;23.198;2023-04-28T00:31:18;92185.88;;;3.19;71.02
37206;BME280;23099;42.636;23.198;2023-04-28T00:33:45;92188.66;;;3.05;72.67
37206;BME280;23099;42.636;23.198;2023-04-28T00:36:11;92193.34;;;3.00;71.91
37206;BME280;23099;42.636;23.198;2023-04-28T00:38:38;92186.63;;;2.94;71.82
37206;BME280;23099;42.636;23.198;2023-04-28T00:41:04;92195.34;;;3.03;72.51
37206;BME280;23099;42.636;23.198;2023-04-28T00:43:31;92207.78;;;3.02;71.78
37206;BME280;23099;42.636;23.198;2023-04-28T00:45:59;92204.03;;;3.03;72.28
37206;BME280;23099;42.636;23.198;2023-04-28T00:48:25;92204.19;;;3.07;72.69
37206;BME280;23099;42.636;23.198;2023-04-28T00:50:53;92203.25;;;2.86;71.28
37206;BME280;23099;42.636;23.198;2023-04-28T00:53:20;92202.00;;;2.92;73.31
37206;BME280;23099;42.636;23.198;2023-04-28T00:55:46;92195.66;;;3.01;74.31
37206;BME280;23099;42.636;23.198;2023-04-28T00:58:14;92200.00;;;3.06;73.73
37206;BME280;23099;42.636;23.198;2023-04-28T01:00:40;92200.31;;;3.04;72.83
37206;BME280;23099;42.636;23.198;2023-04-28T01:03:08;92207.78;;;3.02;73.22
37206;BME280;23099;42.636;23.198;2023-04-28T01:05:35;92207.00;;;3.02;72.69
37206;BME280;23099;42.636;23.198;2023-04-28T01:08:02;92203.72;;;3.05;72.40
37206;BME280;23099;42.636;23.198;2023-04-28T01:10:29;92214.16;;;3.01;71.79
37206;BME280;23099;42.636;23.198;2023-04-28T01:12:55;92205.59;;;2.96;72.52
37206;BME280;23099;42.636;23.198;2023-04-28T01:15:22;92207.44;;;2.95;73.46
37206;BME280;23099;42.636;23.198;2023-04-28T01:17:48;92216.75;;;2.93;73.21
37206;BME280;23099;42.636;23.198;2023-04-28T01:20:16;92213.03;;;2.94;74.09
37206;BME280;23099;42.636;23.198;2023-04-28T01:22:43;92219.38;;;2.84;74.19
37206;BME280;23099;42.636;23.198;2023-04-28T01:25:10;92211.88;;;2.69;73.37
37206;BME280;23099;42.636;23.198;2023-04-28T01:27:37;92216.38;;;2.60;75.92
37206;BME280;23099;42.636;23.198;2023-04-28T01:30:04;92211.72;;;2.65;75.80
37206;BME280;23099;42.636;23.198;2023-04-28T01:32:30;92207.81;;;2.54;75.29
37206;BME280;23099;42.636;23.198;2023-04-28T01:34:57;92216.63;;;2.49;75.74
37206;BME280;23099;42.636;23.198;2023-04-28T01:37:23;92212.91;;;2.51;76.89
37206;BME280;23099;42.636;23.198;2023-04-28T01:39:50;92213.50;;;2.47;76.78
37206;BME280;23099;42.636;23.198;2023-04-28T01:42:17;92212.19;;;2.59;75.29
37206;BME280;23099;42.636;23.198;2023-04-28T01:44:44;92214.47;;;2.60;74.20
37206;BME280;23099;42.636;23.198;2023-04-28T01:47:10;92221.38;;;2.70;74.00
37206;BME280;23099;42.636;23.198;2023-04-28T01:49:37;92211.59;;;2.70;72.88
37206;BME280;23099;42.636;23.198;2023-04-28T01:52:03;92216.28;;;2.82;73.23
37206;BME280;23099;42.636;23.198;2023-04-28T01:54:30;92221.97;;;2.75;73.43
37206;BME280;23099;42.636;23.198;2023-04-28T01:56:57;92222.75;;;2.67;73.05
37206;BME280;23099;42.636;23.198;2023-04-28T01:59:25;92219.63;;;2.65;72.88
37206;BME280;23099;42.636;23.198;2023-04-28T02:01:51;92221.00;;;2.63;73.38
37206;BME280;23099;42.636;23.198;2023-04-28T02:04:18;92222.88;;;2.62;75.04
37206;BME280;23099;42.636;23.198;2023-04-28T02:06:44;92220.09;;;2.67;71.65
37206;BME280;23099;42.636;23.198;2023-04-28T02:09:10;92221.84;;;2.72;74.29
37206;BME280;23099;42.636;23.198;2023-04-28T02:11:37;92220.75;;;2.73;74.43
37206;BME280;23099;42.636;23.198;2023-04-28T02:14:03;92218.34;;;2.54;74.39
37206;BME280;23099;42.636;23.198;2023-04-28T02:16:31;92224.41;;;2.55;70.71
37206;BME280;23099;42.636;23.198;2023-04-28T02:18:58;92230.19;;;2.65;74.12
37206;BME280;23099;42.636;23.198;2023-04-28T02:21:24;92235.94;;;2.59;73.97
37206;BME280;23099;42.636;23.198;2023-04-28T02:23:51;92227.00;;;2.46;74.00
37206;BME280;23099;42.636;23.198;2023-04-28T02:26:18;92224.03;;;2.39;73.56
37206;BME280;23099;42.636;23.198;2023-04-28T02:28:44;92240.19;;;2.46;75.53
37206;BME280;23099;42.636;23.198;2023-04-28T02:31:13;92233.03;;;2.38;75.25
37206;BME280;23099;42.636;23.198;2023-04-28T02:33:40;92241.44;;;2.40;75.82
37206;BME280;23099;42.636;23.198;2023-04-28T02:36:07;92244.94;;;2.27;75.96
37206;BME280;23099;42.636;23.198;2023-04-28T02:38:34;92240.34;;;2.10;75.83
37206;BME280;23099;42.636;23.198;2023-04-28T02:41:01;92245.91;;;2.08;77.23
37206;BME280;23099;42.636;23.198;2023-04-28T02:43:29;92245.13;;;2.08;75.51
37206;BME280;23099;42.636;23.198;2023-04-28T02:45:55;92251.22;;;2.17;76.14
37206;BME280;23099;42.636;23.198;2023-04-28T02:48:22;92243.16;;;2.13;76.24
37206;BME280;23099;42.636;23.198;2023-04-28T02:50:49;92241.41;;;2.09;75.84
37206;BME280;23099;42.636;23.198;2023-04-28T02:53:17;92243.63;;;2.16;75.96
37206;BME280;23099;42.636;23.198;2023-04-28T02:55:43;92252.38;;;2.25;75.80
37206;BME280;23099;42.636;23.198;2023-04-28T02:58:10;92252.84;;;2.27;76.79
37206;BME280;23099;42.636;23.198;2023-04-28T03:00:37;92266.97;;;2.00;76.28
37206;BME280;23099;42.636;23.198;2023-04-28T03:03:03;92273.34;;;2.07;78.04
37206;BME280;23099;42.636;23.198;2023-04-28T03:05:30;92264.91;;;1.97;77.04
37206;BME280;23099;42.636;23.198;2023-04-28T03:07:57;92265.25;;;2.04;77.88
37206;BME280;23099;42.636;23.198;2023-04-28T03:10:24;92266.25;;;2.17;77.32
37206;BME280;23099;42.636;23.198;2023-04-28T03:12:50;92267.13;;;2.03;77.12
37206;BME280;23099;42.636;23.198;2023-04-28T03:15:17;92271.88;;;1.70;76.24
37206;BME280;23099;42.636;23.198;2023-04-28T03:17:43;92276.72;;;1.77;75.41
37206;BME280;23099;42.636;23.198;2023-04-28T03:20:10;92266.41;;;1.89;78.02
37206;BME280;23099;42.636;23.198;2023-04-28T03:22:37;92283.91;;;1.85;78.49
37206;BME280;23099;42.636;23.198;2023-04-28T03:25:05;92288.69;;;1.83;78.01
37206;BME280;23099;42.636;23.198;2023-04-28T03:27:32;92283.13;;;1.85;77.87
37206;BME280;23099;42.636;23.198;2023-04-28T03:29:58;92290.31;;;1.93;78.01
37206;BME280;23099;42.636;23.198;2023-04-28T03:32:25;92296.84;;;1.95;78.97
37206;BME280;23099;42.636;23.198;2023-04-28T03:34:51;92301.75;;;1.88;78.47
37206;BME280;23099;42.636;23.198;2023-04-28T03:37:17;92307.25;;;1.78;77.02
37206;BME280;23099;42.636;23.198;2023-04-28T03:39:44;92313.69;;;1.86;78.77
37206;BME280;23099;42.636;23.198;2023-04-28T03:42:12;92312.91;;;1.85;79.39
37206;BME280;23099;42.636;23.198;2023-04-28T03:44:38;92309.19;;;1.86;78.69
37206;BME280;23099;42.636;23.198;2023-04-28T03:47:05;92325.34;;;1.93;79.34
37206;BME280;23099;42.636;23.198;2023-04-28T03:49:32;92320.38;;;1.92;80.26
37206;BME280;23099;42.636;23.198;2023-04-28T03:51:58;92324.28;;;1.94;79.75
37206;BME280;23099;42.636;23.198;2023-04-28T03:54:25;92328.81;;;2.02;78.65
37206;BME280;23099;42.636;23.198;2023-04-28T03:56:52;92328.78;;;1.94;77.67
37206;BME280;23099;42.636;23.198;2023-04-28T03:59:20;92334.19;;;1.75;77.90
37206;BME280;23099;42.636;23.198;2023-04-28T04:01:46;92330.97;;;1.78;78.50
37206;BME280;23099;42.636;23.198;2023-04-28T04:04:12;92337.03;;;1.78;78.56
37206;BME280;23099;42.636;23.198;2023-04-28T04:06:39;92327.44;;;1.47;80.41
37206;BME280;23099;42.636;23.198;2023-04-28T04:09:05;92328.22;;;1.47;80.35
37206;BME280;23099;42.636;23.198;2023-04-28T04:11:32;92333.88;;;1.54;81.47
37206;BME280;23099;42.636;23.198;2023-04-28T04:13:58;92331.88;;;1.60;81.48
37206;BME280;23099;42.636;23.198;2023-04-28T04:16:26;92333.94;;;1.63;79.01
37206;BME280;23099;42.636;23.198;2023-04-28T04:18:53;92341.75;;;1.68;79.27
37206;BME280;23099;42.636;23.198;2023-04-28T04:21:19;92340.66;;;1.69;79.11
37206;BME280;23099;42.636;23.198;2023-04-28T04:23:46;92340.53;;;1.74;79.96
37206;BME280;23099;42.636;23.198;2023-04-28T04:26:12;92341.88;;;1.85;80.28
37206;BME280;23099;42.636;23.198;2023-04-28T04:28:39;92342.97;;;1.84;78.26
37206;BME280;23099;42.636;23.198;2023-04-28T04:31:05;92351.06;;;1.74;78.49
37206;BME280;23099;42.636;23.198;2023-04-28T04:33:34;92348.09;;;1.89;79.46
37206;BME280;23099;42.636;23.198;2023-04-28T04:36:02;92346.53;;;2.02;78.48
37206;BME280;23099;42.636;23.198;2023-04-28T04:38:29;92341.50;;;2.14;79.18
37206;BME280;23099;42.636;23.198;2023-04-28T04:40:55;92351.13;;;2.19;78.88
37206;BME280;23099;42.636;23.198;2023-04-28T04:43:22;92347.00;;;2.26;78.47
37206;BME280;23099;42.636;23.198;2023-04-28T04:45:48;92345.13;;;2.27;75.76
37206;BME280;23099;42.636;23.198;2023-04-28T04:48:14;92349.16;;;2.24;74.32
37206;BME280;23099;42.636;23.198;2023-04-28T04:50:43;92353.59;;;2.37;75.47
37206;BME280;23099;42.636;23.198;2023-04-28T04:53:10;92350.88;;;2.51;75.40
37206;BME280;23099;42.636;23.198;2023-04-28T04:55:36;92354.59;;;2.50;74.96
37206;BME280;23099;42.636;23.198;2023-04-28T04:58:03;92351.69;;;2.60;73.15
37206;BME280;23099;42.636;23.198;2023-04-28T05:00:30;92363.72;;;2.75;70.23
37206;BME280;23099;42.636;23.198;2023-04-28T05:02:56;92368.00;;;2.93;70.42
37206;BME280;23099;42.636;23.198;2023-04-28T05:05:22;92360.16;;;3.02;69.31
37206;BME280;23099;42.636;23.198;2023-04-28T05:07:50;92371.06;;;3.17;70.10
37206;BME280;23099;42.636;23.198;2023-04-28T05:10:17;92371.69;;;3.14;70.52
37206;BME280;23099;42.636;23.198;2023-04-28T05:12:44;92364.66;;;3.10;74.32
37206;BME280;23099;42.636;23.198;2023-04-28T05:15:10;92368.59;;;3.21;70.22
37206;BME280;23099;42.636;23.198;2023-04-28T05:17:37;92371.09;;;3.26;69.52
37206;BME280;23099;42.636;23.198;2023-04-28T05:20:03;92362.28;;;3.39;67.55
37206;BME280;23099;42.636;23.198;2023-04-28T05:22:30;92362.31;;;3.57;70.04
37206;BME280;23099;42.636;23.198;2023-04-28T05:24:58;92364.53;;;3.72;71.16
37206;BME280;23099;42.636;23.198;2023-04-28T05:27:24;92363.28;;;3.78;68.32
37206;BME280;23099;42.636;23.198;2023-04-28T05:29:52;92366.88;;;3.82;66.06
37206;BME280;23099;42.636;23.198;2023-04-28T05:32:19;92366.56;;;3.83;62.27
37206;BME280;23099;42.636;23.198;2023-04-28T05:34:45;92366.72;;;3.96;61.91
37206;BME280;23099;42.636;23.198;2023-04-28T05:37:12;92365.81;;;4.09;65.46
37206;BME280;23099;42.636;23.198;2023-04-28T05:39:38;92366.25;;;4.19;66.31
37206;BME280;23099;42.636;23.198;2023-04-28T05:42:06;92359.13;;;4.29;65.58
37206;BME280;23099;42.636;23.198;2023-04-28T05:44:33;92356.63;;;4.41;63.98
37206;BME280;23099;42.636;23.198;2023-04-28T05:46:59;92353.03;;;4.54;64.72
37206;BME280;23099;42.636;23.198;2023-04-28T05:49:26;92365.91;;;4.64;61.55
37206;BME280;23099;42.636;23.198;2023-04-28T05:51:52;92360.44;;;4.78;61.95
37206;BME280;23099;42.636;23.198;2023-04-28T05:54:18;92363.41;;;4.85;60.24
37206;BME280;23099;42.636;23.198;2023-04-28T05:56:45;92365.22;;;4.93;57.89
37206;BME280;23099;42.636;23.198;2023-04-28T05:59:13;92358.53;;;5.04;58.25
37206;BME280;23099;42.636;23.198;2023-04-28T06:01:39;92364.56;;;5.13;58.82
37206;BME280;23099;42.636;23.198;2023-04-28T06:04:06;92371.56;;;5.18;58.48
37206;BME280;23099;42.636;23.198;2023-04-28T06:06:32;92362.31;;;5.24;54.76
37206;BME280;23099;42.636;23.198;2023-04-28T06:08:59;92363.41;;;5.23;53.90
37206;BME280;23099;42.636;23.198;2023-04-28T06:11:25;92363.09;;;5.33;56.19
37206;BME280;23099;42.636;23.198;2023-04-28T06:13:52;92353.84;;;5.39;57.91
37206;BME280;23099;42.636;23.198;2023-04-28T06:16:20;92352.69;;;5.49;58.19
37206;BME280;23099;42.636;23.198;2023-04-28T06:18:47;92363.66;;;5.47;55.62
37206;BME280;23099;42.636;23.198;2023-04-28T06:21:14;92357.97;;;5.57;55.09
37206;BME280;23099;42.636;23.198;2023-04-28T06:23:41;92359.31;;;5.63;57.64
37206;BME280;23099;42.636;23.198;2023-04-28T06:26:07;92355.09;;;5.71;55.05
37206;BME280;23099;42.636;23.198;2023-04-28T06:28:34;92366.72;;;5.79;55.40
37206;BME280;23099;42.636;23.198;2023-04-28T06:31:00;92366.69;;;5.87;54.11
37206;BME280;23099;42.636;23.198;2023-04-28T06:33:28;92371.38;;;5.90;55.10
37206;BME280;23099;42.636;23.198;2023-04-28T06:35:54;92367.19;;;5.89;54.49
37206;BME280;23099;42.636;23.198;2023-04-28T06:38:21;92361.81;;;5.98;53.61
37206;BME280;23099;42.636;23.198;2023-04-28T06:40:47;92358.84;;;5.99;51.61
37206;BME280;23099;42.636;23.198;2023-04-28T06:43:14;92362.97;;;6.09;52.15
37206;BME280;23099;42.636;23.198;2023-04-28T06:45:40;92359.94;;;6.19;52.48
37206;BME280;23099;42.636;23.198;2023-04-28T06:48:07;92361.09;;;6.30;52.50
37206;BME280;23099;42.636;23.198;2023-04-28T06:50:35;92363.50;;;6.23;50.03
37206;BME280;23099;42.636;23.198;2023-04-28T06:53:02;92361.75;;;6.27;52.52
37206;BME280;23099;42.636;23.198;2023-04-28T06:55:28;92362.03;;;6.34;51.77
37206;BME280;23099;42.636;23.198;2023-04-28T06:57:55;92366.38;;;6.51;50.55
37206;BME280;23099;42.636;23.198;2023-04-28T07:00:21;92363.53;;;6.56;49.69
37206;BME280;23099;42.636;23.198;2023-04-28T07:02:48;92368.81;;;6.77;50.67
37206;BME280;23099;42.636;23.198;2023-04-28T07:05:14;92360.13;;;6.89;49.17
37206;BME280;23099;42.636;23.198;2023-04-28T07:07:42;92352.94;;;7.01;49.86
37206;BME280;23099;42.636;23.198;2023-04-28T07:10:09;92351.53;;;7.16;49.05
37206;BME280;23099;42.636;23.198;2023-04-28T07:12:35;92350.25;;;7.34;50.08
37206;BME280;23099;42.636;23.198;2023-04-28T07:15:02;92362.53;;;7.51;48.23
37206;BME280;23099;42.636;23.198;2023-04-28T07:17:28;92352.13;;;7.70;46.51
37206;BME280;23099;42.636;23.198;2023-04-28T07:19:55;92348.34;;;7.84;48.00
37206;BME280;23099;42.636;23.198;2023-04-28T07:22:21;92341.88;;;7.97;47.05
37206;BME280;23099;42.636;23.198;2023-04-28T07:24:49;92342.53;;;8.18;47.22
37206;BME280;23099;42.636;23.198;2023-04-28T07:27:16;92343.25;;;8.31;46.76
37206;BME280;23099;42.636;23.198;2023-04-28T07:29:43;92341.22;;;8.52;46.05
37206;BME280;23099;42.636;23.198;2023-04-28T07:32:09;92343.03;;;8.76;44.83
37206;BME280;23099;42.636;23.198;2023-04-28T07:34:36;92340.56;;;8.99;44.81
37206;BME280;23099;42.636;23.198;2023-04-28T07:37:02;92342.38;;;9.10;44.04
37206;BME280;23099;42.636;23.198;2023-04-28T07:39:29;92339.41;;;9.28;44.78
37206;BME280;23099;42.636;23.198;2023-04-28T07:41:57;92335.84;;;9.23;43.45
37206;BME280;23099;42.636;23.198;2023-04-28T07:44:24;92340.94;;;9.29;43.36
37206;BME280;23099;42.636;23.198;2023-04-28T07:46:51;92338.97;;;9.26;43.94
37206;BME280;23099;42.636;23.198;2023-04-28T07:49:18;92347.31;;;9.40;44.58
37206;BME280;23099;42.636;23.198;2023-04-28T07:51:44;92347.16;;;9.64;42.92
37206;BME280;23099;42.636;23.198;2023-04-28T07:57:35;92341.47;;;10.16;44.53
37206;BME280;23099;42.636;23.198;2023-04-28T08:00:02;92334.59;;;10.50;40.84
37206;BME280;23099;42.636;23.198;2023-04-28T08:02:29;92329.88;;;10.63;38.51
37206;BME280;23099;42.636;23.198;2023-04-28T08:04:58;92331.28;;;10.57;39.38
37206;BME280;23099;42.636;23.198;2023-04-28T08:07:25;92329.81;;;10.59;39.48
37206;BME280;23099;42.636;23.198;2023-04-28T08:09:52;92330.50;;;10.56;37.83
37206;BME280;23099;42.636;23.198;2023-04-28T08:12:19;92326.09;;;10.64;39.54
37206;BME280;23099;42.636;23.198;2023-04-28T08:14:47;92337.91;;;10.63;37.70
37206;BME280;23099;42.636;23.198;2023-04-28T08:17:14;92338.38;;;10.69;38.60
37206;BME280;23099;42.636;23.198;2023-04-28T08:19:41;92324.09;;;10.80;40.92
37206;BME280;23099;42.636;23.198;2023-04-28T08:22:10;92334.97;;;11.10;38.27
37206;BME280;23099;42.636;23.198;2023-04-28T08:24:37;92335.69;;;11.30;41.40
37206;BME280;23099;42.636;23.198;2023-04-28T08:27:05;92335.81;;;11.60;40.91
37206;BME280;23099;42.636;23.198;2023-04-28T08:29:32;92305.84;;;11.51;39.15
37206;BME280;23099;42.636;23.198;2023-04-28T08:32:00;92326.25;;;11.59;37.08
37206;BME280;23099;42.636;23.198;2023-04-28T08:34:27;92319.47;;;11.88;39.26
37206;BME280;23099;42.636;23.198;2023-04-28T08:36:53;92322.69;;;12.00;37.74
37206;BME280;23099;42.636;23.198;2023-04-28T08:39:20;92315.19;;;12.10;37.75
37206;BME280;23099;42.636;23.198;2023-04-28T08:41:48;92321.72;;;12.12;36.60
37206;BME280;23099;42.636;23.198;2023-04-28T08:44:14;92314.31;;;12.02;36.46
37206;BME280;23099;42.636;23.198;2023-04-28T08:46:42;92316.41;;;12.16;36.85
37206;BME280;23099;42.636;23.198;2023-04-28T08:49:12;92316.56;;;12.26;36.94
37206;BME280;23099;42.636;23.198;2023-04-28T08:51:44;92320.41;;;12.29;36.58
37206;BME280;23099;42.636;23.198;2023-04-28T08:54:13;92313.31;;;12.40;37.54
37206;BME280;23099;42.636;23.198;2023-04-28T08:56:41;92305.59;;;12.35;37.25
37206;BME280;23099;42.636;23.198;2023-04-28T08:59:10;92299.31;;;12.54;38.20
37206;BME280;23099;42.636;23.198;2023-04-28T09:01:37;92302.28;;;12.79;35.48
37206;BME280;23099;42.636;23.198;2023-04-28T09:04:04;92302.13;;;12.98;36.09
37206;BME280;23099;42.636;23.198;2023-04-28T09:06:34;92300.16;;;12.95;34.86
37206;BME280;23099;42.636;23.198;2023-04-28T09:09:20;92298.38;;;13.06;34.62
37206;BME280;23099;42.636;23.198;2023-04-28T09:11:54;92296.91;;;13.12;35.13
37206;BME280;23099;42.636;23.198;2023-04-28T09:14:22;92301.22;;;13.20;38.43
37206;BME280;23099;42.636;23.198;2023-04-28T09:16:49;92291.31;;;13.28;35.59
37206;BME280;23099;42.636;23.198;2023-04-28T09:19:16;92301.78;;;13.03;35.03
37206;BME280;23099;42.636;23.198;2023-04-28T09:21:48;92289.66;;;13.16;35.93
37206;BME280;23099;42.636;23.198;2023-04-28T09:24:28;92294.88;;;13.39;34.84
37206;BME280;23099;42.636;23.198;2023-04-28T09:26:55;92288.75;;;13.38;34.74
37206;BME280;23099;42.636;23.198;2023-04-28T09:29:22;92284.16;;;13.42;35.12
37206;BME280;23099;42.636;23.198;2023-04-28T09:31:49;92278.00;;;13.38;34.37
37206;BME280;23099;42.636;23.198;2023-04-28T09:34:15;92273.03;;;13.40;35.09
37206;BME280;23099;42.636;23.198;2023-04-28T09:36:42;92275.47;;;13.60;36.42
37206;BME280;23099;42.636;23.198;2023-04-28T09:39:10;92279.00;;;13.67;35.02
37206;BME280;23099;42.636;23.198;2023-04-28T09:41:38;92282.88;;;13.70;34.95
37206;BME280;23099;42.636;23.198;2023-04-28T09:44:12;92274.97;;;13.95;35.23
37206;BME280;23099;42.636;23.198;2023-04-28T09:46:40;92256.88;;;13.88;34.66
37206;BME280;23099;42.636;23.198;2023-04-28T09:49:07;92266.19;;;14.01;35.07
37206;BME280;23099;42.636;23.198;2023-04-28T09:51:34;92265.47;;;14.08;33.32
37206;BME280;23099;42.636;23.198;2023-04-28T09:54:02;92262.50;;;14.31;33.66
37206;BME280;23099;42.636;23.198;2023-04-28T09:56:32;92258.03;;;14.53;35.58
37206;BME280;23099;42.636;23.198;2023-04-28T09:59:00;92264.59;;;14.62;32.68
37206;BME280;23099;42.636;23.198;2023-04-28T10:01:31;92261.91;;;14.62;34.12
37206;BME280;23099;42.636;23.198;2023-04-28T10:03:59;92251.91;;;14.52;32.30
37206;BME280;23099;42.636;23.198;2023-04-28T10:06:26;92251.13;;;14.59;31.42
37206;BME280;23099;42.636;23.198;2023-04-28T10:08:54;92250.38;;;14.55;31.51
37206;BME280;23099;42.636;23.198;2023-04-28T10:11:22;92243.53;;;14.78;31.42
37206;BME280;23099;42.636;23.198;2023-04-28T10:13:52;92232.06;;;15.03;32.76
37206;BME280;23099;42.636;23.198;2023-04-28T10:16:19;92240.19;;;15.24;32.10
37206;BME280;23099;42.636;23.198;2023-04-28T10:18:46;92242.16;;;15.55;31.90
37206;BME280;23099;42.636;23.198;2023-04-28T10:21:16;92241.00;;;15.71;32.40
37206;BME280;23099;42.636;23.198;2023-04-28T10:24:07;92244.44;;;15.61;31.26
37206;BME280;23099;42.636;23.198;2023-04-28T10:27:02;92245.63;;;15.70;32.15
37206;BME280;23099;42.636;23.198;2023-04-28T10:29:31;92235.22;;;15.65;31.70
37206;BME280;23099;42.636;23.198;2023-04-28T10:32:17;92230.59;;;15.83;29.79
37206;BME280;23099;42.636;23.198;2023-04-28T10:34:45;92230.97;;;15.96;32.01
37206;BME280;23099;42.636;23.198;2023-04-28T10:37:13;92222.50;;;16.01;29.48
37206;BME280;23099;42.636;23.198;2023-04-28T10:39:51;92224.78;;;16.03;29.83
37206;BME280;23099;42.636;23.198;2023-04-28T10:42:58;92210.06;;;16.32;28.36
37206;BME280;23099;42.636;23.198;2023-04-28T10:46:01;92207.78;;;16.16;28.10
37206;BME280;23099;42.636;23.198;2023-04-28T10:48:55;92207.97;;;16.79;29.03
37206;BME280;23099;42.636;23.198;2023-04-28T10:51:32;92214.47;;;16.88;29.30
37206;BME280;23099;42.636;23.198;2023-04-28T10:54:23;92202.88;;;16.91;26.23
37206;BME280;23099;42.636;23.198;2023-04-28T10:57:17;92206.53;;;17.29;29.39
37206;BME280;23099;42.636;23.198;2023-04-28T10:59:44;92196.41;;;17.41;30.79
37206;BME280;23099;42.636;23.198;2023-04-28T11:05:17;92196.81;;;17.36;28.74
37206;BME280;23099;42.636;23.198;2023-04-28T11:11:21;92181.34;;;17.40;27.99
37206;BME280;23099;42.636;23.198;2023-04-28T11:13:49;92185.09;;;17.56;27.43
37206;BME280;23099;42.636;23.198;2023-04-28T11:16:17;92189.94;;;17.76;28.10
37206;BME280;23099;42.636;23.198;2023-04-28T11:18:53;92177.94;;;17.84;28.18
37206;BME280;23099;42.636;23.198;2023-04-28T11:21:23;92186.28;;;18.00;28.53
37206;BME280;23099;42.636;23.198;2023-04-28T11:23:50;92179.69;;;18.01;26.23
37206;BME280;23099;42.636;23.198;2023-04-28T11:26:18;92179.06;;;18.24;27.48
37206;BME280;23099;42.636;23.198;2023-04-28T11:28:50;92176.28;;;17.93;26.99
37206;BME280;23099;42.636;23.198;2023-04-28T11:31:18;92178.03;;;18.11;28.29
37206;BME280;23099;42.636;23.198;2023-04-28T11:33:49;92174.06;;;18.19;28.65
37206;BME280;23099;42.636;23.198;2023-04-28T11:36:29;92175.72;;;18.13;26.69
37206;BME280;23099;42.636;23.198;2023-04-28T11:38:57;92170.44;;;17.98;26.91
37206;BME280;23099;42.636;23.198;2023-04-28T11:41:24;92167.50;;;18.20;30.14
37206;BME280;23099;42.636;23.198;2023-04-28T11:43:51;92157.22;;;18.04;28.42
37206;BME280;23099;42.636;23.198;2023-04-28T11:46:19;92160.13;;;18.24;26.82
37206;BME280;23099;42.636;23.198;2023-04-28T11:48:46;92166.34;;;17.83;27.12
37206;BME280;23099;42.636;23.198;2023-04-28T11:51:31;92160.03;;;17.97;27.65
37206;BME280;23099;42.636;23.198;2023-04-28T11:53:59;92160.81;;;17.94;27.23
37206;BME280;23099;42.636;23.198;2023-04-28T11:56:26;92171.31;;;17.88;28.17
37206;BME280;23099;42.636;23.198;2023-04-28T11:59:00;92164.22;;;18.01;27.17
37206;BME280;23099;42.636;23.198;2023-04-28T12:01:28;92171.69;;;18.28;27.71
37206;BME280;23099;42.636;23.198;2023-04-28T12:03:55;92163.53;;;18.31;25.24
37206;BME280;23099;42.636;23.198;2023-04-28T12:06:22;92160.44;;;18.63;26.46
37206;BME280;23099;42.636;23.198;2023-04-28T12:08:50;92165.72;;;18.06;23.41
37206;BME280;23099;42.636;23.198;2023-04-28T12:11:17;92157.94;;;17.74;24.48
37206;BME280;23099;42.636;23.198;2023-04-28T12:14:01;92158.31;;;17.28;26.65
37206;BME280;23099;42.636;23.198;2023-04-28T12:16:37;92158.69;;;17.30;25.82
37206;BME280;23099;42.636;23.198;2023-04-28T12:19:07;92153.09;;;17.48;24.78
37206;BME280;23099;42.636;23.198;2023-04-28T12:21:35;92150.16;;;17.80;25.83
37206;BME280;23099;42.636;23.198;2023-04-28T12:24:14;92146.69;;;17.76;25.89
37206;BME280;23099;42.636;23.198;2023-04-28T12:26:41;92144.69;;;17.87;27.43
37206;BME280;23099;42.636;23.198;2023-04-28T12:29:08;92147.78;;;18.19;26.14
37206;BME280;23099;42.636;23.198;2023-04-28T12:31:47;92141.63;;;18.19;27.18
37206;BME280;23099;42.636;23.198;2023-04-28T12:34:14;92150.47;;;18.23;24.30
37206;BME280;23099;42.636;23.198;2023-04-28T12:36:41;92134.09;;;18.33;24.70
37206;BME280;23099;42.636;23.198;2023-04-28T12:39:13;92140.81;;;18.56;24.08
37206;BME280;23099;42.636;23.198;2023-04-28T12:41:43;92134.97;;;18.61;26.28
37206;BME280;23099;42.636;23.198;2023-04-28T12:44:10;92141.97;;;18.58;25.96
37206;BME280;23099;42.636;23.198;2023-04-28T12:46:36;92133.22;;;18.44;23.47
37206;BME280;23099;42.636;23.198;2023-04-28T12:49:03;92140.16;;;18.45;25.14
37206;BME280;23099;42.636;23.198;2023-04-28T12:51:30;92136.41;;;18.35;23.15
37206;BME280;23099;42.636;23.198;2023-04-28T12:53:56;92147.81;;;17.82;23.91
37206;BME280;23099;42.636;23.198;2023-04-28T12:56:24;92133.16;;;17.79;24.79
37206;BME280;23099;42.636;23.198;2023-04-28T12:58:52;92132.34;;;17.86;25.70
37206;BME280;23099;42.636;23.198;2023-04-28T13:01:18;92139.34;;;17.80;26.15
37206;BME280;23099;42.636;23.198;2023-04-28T13:03:45;92123.59;;;18.05;25.42
37206;BME280;23099;42.636;23.198;2023-04-28T13:06:12;92121.06;;;18.25;25.79
37206;BME280;23099;42.636;23.198;2023-04-28T13:08:39;92117.97;;;18.26;27.20
37206;BME280;23099;42.636;23.198;2023-04-28T13:11:07;92109.28;;;18.42;25.00